Time;durP1;ratioP1;P1;durP2;ratioP2;P2;SDS_P1;SDS_P2;PMS_P1;PMS_P2;Temp;Humidity;BMP_temperature;BMP_pressure;BME280_temperature;BME280_humidity;BME280_pressure;Samples;Min_cycle;Max_cycle;Signal;HPM_P1;HPM_P2
2023/06/19 00:01:46;;;;;;;0.00;0.00;;;;;;;;;;6318247;22;20412;-91
2023/06/19 00:04:12;;;;;;;0.00;0.00;;;;;;;;;;6317021;22;19999;-90
2023/06/19 00:06:38;;;;;;;0.00;0.00;;;;;;;;;;6309052;22;19999;-90
2023/06/19 00:09:04;;;;;;;0.00;0.00;;;;;;;;;;6304030;22;20003;-89
2023/06/19 00:11:30;;;;;;;0.00;0.00;;;;;;;;;;6304302;22;20014;-89
2023/06/19 00:13:56;;;;;;;0.00;0.00;;;;;;;;;;6303681;22;20007;-89
2023/06/19 00:16:24;;;;;;;0.00;0.00;;;;;;;;;;6305700;22;20370;-89
2023/06/19 00:18:51;;;;;;;0.00;0.00;;;;;;;;;;6303253;22;20343;-90
2023/06/19 00:21:17;;;;;;;0.00;0.00;;;;;;;;;;6303814;22;20007;-90
2023/06/19 00:23:43;;;;;;;0.00;0.00;;;;;;;;;;6306211;22;20010;-91
2023/06/19 00:26:08;;;;;;;0.00;0.00;;;22.60;84.70;;;;;;6308308;22;19996;-90
2023/06/19 00:28:34;;;;;;;0.00;0.00;;;22.50;84.70;;;;;;6307456;22;20281;-90
2023/06/19 00:31:00;;;;;;;0.00;0.00;;;;;;;;;;6307268;22;20004;-90
2023/06/19 00:33:26;;;;;;;0.00;0.00;;;;;;;;;;6306202;22;20336;-90
2023/06/19 00:35:54;;;;;;;0.00;0.00;;;;;;;;;;6307977;22;19999;-90
2023/06/19 00:38:20;;;;;;;0.00;0.00;;;;;;;;;;6306575;22;20006;-88
2023/06/19 00:40:46;;;;;;;0.00;0.00;;;;;;;;;;6306445;22;20344;-90
2023/06/19 00:43:11;;;;;;;0.00;0.00;;;22.00;90.70;;;;;;6307340;22;20069;-90
2023/06/19 00:45:37;;;;;;;0.00;0.00;;;;;;;;;;6305805;22;20029;-89
2023/06/19 00:48:04;;;;;;;0.00;0.00;;;21.60;92.20;;;;;;6307710;22;20003;-89
2023/06/19 00:50:30;;;;;;;0.00;0.00;;;;;;;;;;6306320;22;20003;-90
2023/06/19 00:52:56;;;;;;;0.00;0.00;;;;;;;;;;6307711;22;20014;-90
2023/06/19 00:55:22;;;;;;;0.00;0.00;;;;;;;;;;6308705;22;19999;-90
2023/06/19 00:57:49;;;;;;;0.00;0.00;;;21.80;90.80;;;;;;6307950;22;20391;-90
2023/06/19 01:00:15;;;;;;;0.00;0.00;;;22.00;87.40;;;;;;6307690;22;20423;-89
2023/06/19 01:02:41;;;;;;;0.00;0.00;;;;;;;;;;6304920;22;20011;-91
2023/06/19 01:05:07;;;;;;;0.00;0.00;;;;;;;;;;6307340;22;20313;-91
2023/06/19 01:08:02;;;;;;;0.00;0.00;;;21.70;89.00;;;;;;6308581;22;20002;-90
2023/06/19 01:10:34;;;;;;;0.00;0.00;;;21.60;90.20;;;;;;6306110;22;20068;-90
2023/06/19 01:13:06;;;;;;;0.00;0.00;;;21.50;90.80;;;;;;6308237;22;20086;-90
2023/06/19 01:15:32;;;;;;;0.00;0.00;;;21.50;91.00;;;;;;6307372;22;20065;-90
2023/06/19 01:18:00;;;;;;;0.00;0.00;;;21.50;91.40;;;;;;6304647;22;20000;-90
2023/06/19 01:20:26;;;;;;;0.00;0.00;;;;;;;;;;6306739;22;20008;-89
2023/06/19 01:22:56;;;;;;;0.00;0.00;;;;;;;;;;6307935;22;20006;-90
2023/06/19 01:25:22;;;;;;;0.00;0.00;;;;;;;;;;6304649;22;20068;-90
2023/06/19 01:27:48;;;;;;;0.00;0.00;;;;;;;;;;6305777;22;20439;-90
2023/06/19 01:30:13;;;;;;;0.00;0.00;;;21.60;91.20;;;;;;6307582;22;20003;-90
2023/06/19 01:32:52;;;;;;;0.00;0.00;;;21.50;90.90;;;;;;6308991;22;20227;-90
2023/06/19 01:35:21;;;;;;;0.00;0.00;;;21.60;89.20;;;;;;6306503;22;20026;-90
2023/06/19 01:37:48;;;;;;;0.00;0.00;;;21.80;88.30;;;;;;6306277;22;20136;-89
2023/06/19 01:40:15;;;;;;;0.00;0.00;;;;;;;;;;6306679;22;20079;-90
2023/06/19 01:42:41;;;;;;;0.00;0.00;;;;;;;;;;6307054;22;20004;-91
2023/06/19 01:45:07;;;;;;;0.00;0.00;;;21.80;87.10;;;;;;6307371;22;20010;-90
2023/06/19 01:47:33;;;;;;;0.00;0.00;;;;;;;;;;6308501;22;19995;-90
2023/06/19 01:49:59;;;;;;;0.00;0.00;;;;;;;;;;6306744;22;20002;-90
2023/06/19 01:52:25;;;;;;;0.00;0.00;;;;;;;;;;6306423;22;20007;-90
2023/06/19 01:54:52;;;;;;;0.00;0.00;;;;;;;;;;6307095;22;19995;-90
2023/06/19 01:57:18;;;;;;;0.00;0.00;;;;;;;;;;6309717;22;20384;-90
2023/06/19 01:59:44;;;;;;;0.00;0.00;;;;;;;;;;6306265;22;20540;-90
2023/06/19 02:02:10;;;;;;;0.00;0.00;;;;;;;;;;6307052;22;20003;-90
2023/06/19 02:04:36;;;;;;;0.00;0.00;;;;;;;;;;6307334;22;20090;-90
2023/06/19 02:07:02;;;;;;;0.00;0.00;;;21.60;91.00;;;;;;6308629;22;20022;-91
2023/06/19 02:09:28;;;;;;;0.00;0.00;;;;;;;;;;6306135;22;20037;-90
2023/06/19 02:11:54;;;;;;;0.00;0.00;;;;;;;;;;6307612;22;20007;-90
2023/06/19 02:14:20;;;;;;;0.00;0.00;;;;;;;;;;6306968;22;20041;-90
2023/06/19 02:16:46;;;;;;;0.00;0.00;;;;;;;;;;6306686;22;20007;-90
2023/06/19 02:19:12;;;;;;;0.00;0.00;;;;;;;;;;6308190;22;20014;-91
2023/06/19 02:21:38;;;;;;;0.00;0.00;;;;;;;;;;6306553;22;20007;-90
2023/06/19 02:24:04;;;;;;;0.00;0.00;;;;;;;;;;6306199;22;20184;-90
2023/06/19 02:26:30;;;;;;;0.00;0.00;;;;;;;;;;6306123;22;20449;-90
2023/06/19 02:28:56;;;;;;;0.00;0.00;;;;;;;;;;6306889;22;20003;-91
2023/06/19 02:31:23;;;;;;;0.00;0.00;;;;;;;;;;6308731;22;20007;-88
2023/06/19 02:33:49;;;;;;;0.00;0.00;;;22.40;90.60;;;;;;6306959;22;20021;-90
2023/06/19 02:36:19;;;;;;;0.00;0.00;;;;;;;;;;6306629;22;20052;-90
2023/06/19 02:38:45;;;;;;;0.00;0.00;;;;;;;;;;6306442;22;20018;-90
2023/06/19 02:41:11;;;;;;;0.00;0.00;;;;;;;;;;6306854;22;20003;-91
2023/06/19 02:43:37;;;;;;;0.00;0.00;;;;;;;;;;6307211;22;20006;-90
2023/06/19 02:46:03;;;;;;;0.00;0.00;;;;;;;;;;6306284;22;20428;-88
2023/06/19 02:48:29;;;;;;;0.00;0.00;;;;;;;;;;6310273;22;19999;-89
2023/06/19 02:50:55;;;;;;;0.00;0.00;;;;;;;;;;6307268;22;20034;-89
2023/06/19 02:53:20;;;;;;;0.00;0.00;;;;;;;;;;6308059;22;20025;-89
2023/06/19 02:55:46;;;;;;;0.00;0.00;;;;;;;;;;6306728;22;20011;-90
2023/06/19 02:58:12;;;;;;;0.00;0.00;;;21.30;92.00;;;;;;6309649;22;19999;-87
2023/06/19 03:00:38;;;;;;;0.00;0.00;;;;;;;;;;6306713;22;20057;-88
2023/06/19 03:03:04;;;;;;;0.00;0.00;;;;;;;;;;6306560;22;20007;-90
2023/06/19 03:05:30;;;;;;;0.00;0.00;;;;;;;;;;6305158;22;20489;-90
2023/06/19 03:07:55;;;;;;;0.00;0.00;;;;;;;;;;6305859;22;19996;-89
2023/06/19 03:10:21;;;;;;;0.00;0.00;;;;;;;;;;6306695;22;20573;-90
2023/06/19 03:12:47;;;;;;;0.00;0.00;;;;;;;;;;6307304;22;20003;-90
2023/06/19 03:15:13;;;;;;;0.00;0.00;;;21.10;93.90;;;;;;6306765;22;20011;-90
2023/06/19 03:17:39;;;;;;;0.00;0.00;;;;;;;;;;6305354;22;20146;-89
2023/06/19 03:20:05;;;;;;;0.00;0.00;;;20.80;94.00;;;;;;6306160;22;20090;-90
2023/06/19 03:22:31;;;;;;;0.00;0.00;;;;;;;;;;6306400;22;20320;-88
2023/06/19 03:24:58;;;;;;;0.00;0.00;;;;;;;;;;6306733;22;20010;-90
2023/06/19 03:27:26;;;;;;;0.00;0.00;;;;;;;;;;6306712;22;20006;-90
2023/06/19 03:29:52;;;;;;;0.00;0.00;;;;;;;;;;6306146;22;19999;-90
2023/06/19 03:32:19;;;;;;;0.00;0.00;;;;;;;;;;6305389;22;20011;-90
2023/06/19 03:34:44;;;;;;;0.00;0.00;;;;;;;;;;6306768;22;20018;-90
2023/06/19 03:37:10;;;;;;;0.00;0.00;;;;;;;;;;6305546;22;20331;-90
2023/06/19 03:39:36;;;;;;;0.00;0.00;;;;;;;;;;6307062;22;20013;-89
2023/06/19 03:42:02;;;;;;;0.00;0.00;;;;;;;;;;6305532;22;20090;-91
2023/06/19 03:44:28;;;;;;;0.00;0.00;;;20.80;96.00;;;;;;6306901;22;20011;-89
2023/06/19 03:46:54;;;;;;;0.00;0.00;;;;;;;;;;6306636;22;19995;-90
2023/06/19 03:49:20;;;;;;;0.00;0.00;;;;;;;;;;6307155;22;20056;-88
2023/06/19 03:51:46;;;;;;;0.00;0.00;;;;;;;;;;6305563;22;20000;-90
2023/06/19 03:54:12;;;;;;;0.00;0.00;;;;;;;;;;6307632;22;20013;-90
2023/06/19 03:56:38;;;;;;;0.00;0.00;;;20.90;97.40;;;;;;6307747;22;20117;-88
2023/06/19 03:59:04;;;;;;;0.00;0.00;;;;;;;;;;6307130;22;20007;-90
2023/06/19 04:01:30;;;;;;;0.00;0.00;;;;;;;;;;6305447;22;20052;-88
2023/06/19 04:03:56;;;;;;;0.00;0.00;;;;;;;;;;6308430;22;20299;-88
2023/06/19 04:06:22;;;;;;;0.00;0.00;;;;;;;;;;6303182;22;20003;-89
2023/06/19 04:08:48;;;;;;;0.00;0.00;;;;;;;;;;6307055;22;20014;-90
2023/06/19 04:11:14;;;;;;;0.00;0.00;;;;;;;;;;6304899;22;20408;-90
2023/06/19 04:13:39;;;;;;;0.00;0.00;;;20.70;99.90;;;;;;6304546;22;20054;-90
2023/06/19 04:16:05;;;;;;;0.00;0.00;;;;;;;;;;6280600;22;20014;-89
2023/06/19 04:18:31;;;;;;;0.00;0.00;;;20.80;99.90;;;;;;6280802;22;20003;-91
2023/06/19 04:20:57;;;;;;;0.00;0.00;;;;;;;;;;6280216;22;20007;-90
2023/06/19 04:23:23;;;;;;;0.00;0.00;;;;;;;;;;6279761;22;20056;-91
2023/06/19 04:25:49;;;;;;;0.00;0.00;;;;;;;;;;6279868;22;20007;-90
2023/06/19 04:38:34;;;;;;;0.00;0.00;;;;;;;;;;6318155;22;20019;-91
2023/06/19 04:41:00;;;;;;;0.00;0.00;;;;;;;;;;6316134;22;20006;-89
2023/06/19 04:43:26;;;;;;;0.00;0.00;;;;;;;;;;6313182;22;20443;-90
2023/06/19 04:45:53;;;;;;;0.00;0.00;;;;;;;;;;6314882;22;20049;-89
2023/06/19 04:48:19;;;;;;;0.00;0.00;;;;;;;;;;6314099;22;19999;-91
2023/06/19 04:50:45;;;;;;;0.00;0.00;;;;;;;;;;6313123;22;20010;-83
2023/06/19 04:53:11;;;;;;;0.00;0.00;;;;;;;;;;6317382;22;20014;-89
2023/06/19 04:55:37;;;;;;;0.00;0.00;;;;;;;;;;6318095;22;20003;-90
2023/06/19 04:58:03;;;;;;;0.00;0.00;;;;;;;;;;6319739;22;20011;-92
2023/06/19 05:00:29;;;;;;;0.00;0.00;;;;;;;;;;6318509;22;20058;-90
2023/06/19 05:02:59;;;;;;;0.00;0.00;;;;;;;;;;6319096;22;20454;-91
2023/06/19 05:05:25;;;;;;;;;;;22.00;99.90;;;;;;6318718;22;20080;-89
2023/06/19 05:07:50;;;;;;;0.00;0.00;;;;;;;;;;6318937;22;19899;-86
2023/06/19 05:10:16;;;;;;;0.00;0.00;;;22.00;99.90;;;;;;6318261;22;20467;-91
2023/06/19 05:12:42;;;;;;;0.00;0.00;;;;;;;;;;6319819;22;20023;-92
2023/06/19 05:15:08;;;;;;;0.00;0.00;;;22.00;99.30;;;;;;6320726;22;20008;-91
2023/06/19 05:17:35;;;;;;;0.00;0.00;;;;;;;;;;6319856;22;20003;-91
2023/06/19 05:20:00;;;;;;;0.00;0.00;;;;;;;;;;6319914;22;20086;-86
2023/06/19 05:22:27;;;;;;;0.00;0.00;;;;;;;;;;6320581;22;20003;-91
2023/06/19 05:24:53;;;;;;;0.00;0.00;;;;;;;;;;6318717;22;20000;-91
2023/06/19 05:27:19;;;;;;;0.00;0.00;;;;;;;;;;6318337;22;20010;-87
2023/06/19 05:29:44;;;;;;;0.00;0.00;;;;;;;;;;6317597;22;20027;-92
2023/06/19 05:32:10;;;;;;;0.00;0.00;;;;;;;;;;6320132;22;20019;-92
2023/06/19 05:34:36;;;;;;;0.00;0.00;;;;;;;;;;6320712;22;20003;-91
2023/06/19 05:37:03;;;;;;;0.00;0.00;;;22.40;97.90;;;;;;6319547;22;20011;-90
2023/06/19 05:39:29;;;;;;;0.00;0.00;;;;;;;;;;6320283;22;20068;-91
2023/06/19 05:41:55;;;;;;;0.00;0.00;;;;;;;;;;6318715;22;20004;-92
2023/06/19 05:44:21;;;;;;;0.00;0.00;;;;;;;;;;6320872;22;20006;-91
2023/06/19 05:46:47;;;;;;;0.00;0.00;;;;;;;;;;6320114;22;19999;-92
2023/06/19 05:49:13;;;;;;;0.00;0.00;;;22.40;98.10;;;;;;6320155;22;20000;-91
2023/06/19 05:51:38;;;;;;;0.00;0.00;;;22.00;98.10;;;;;;6319649;22;20049;-89
2023/06/19 05:54:04;;;;;;;0.00;0.00;;;;;;;;;;6319838;22;20011;-92
2023/06/19 05:56:32;;;;;;;0.00;0.00;;;22.30;98.40;;;;;;6320023;22;20117;-92
2023/06/19 05:58:59;;;;;;;0.00;0.00;;;;;;;;;;6318849;22;20007;-92
2023/06/19 06:01:27;;;;;;;0.00;0.00;;;;;;;;;;6319733;22;20095;-89
2023/06/19 06:03:53;;;;;;;0.00;0.00;;;;;;;;;;6319833;22;20192;-87
2023/06/19 06:06:19;;;;;;;0.00;0.00;;;;;;;;;;6318953;22;20068;-90
2023/06/19 06:08:45;;;;;;;0.00;0.00;;;;;;;;;;6319558;22;20007;-89
2023/06/19 06:11:11;;;;;;;0.00;0.00;;;;;;;;;;6320561;22;20030;-92
2023/06/19 06:13:37;;;;;;;0.00;0.00;;;23.00;97.80;;;;;;6322065;22;20313;-92
2023/06/19 06:16:03;;;;;;;0.00;0.00;;;;;;;;;;6319578;22;20199;-87
2023/06/19 06:18:29;;;;;;;0.00;0.00;;;;;;;;;;6321462;22;20007;-89
2023/06/19 06:20:55;;;;;;;0.00;0.00;;;;;;;;;;6320225;22;20062;-90
2023/06/19 06:23:20;;;;;;;0.00;0.00;;;;;;;;;;6320969;22;20018;-87
2023/06/19 06:25:46;;;;;;;0.00;0.00;;;;;;;;;;6321338;22;20038;-90
2023/06/19 06:28:12;;;;;;;0.00;0.00;;;;;;;;;;6320574;22;20000;-87
2023/06/19 06:30:41;;;;;;;0.00;0.00;;;;;;;;;;6319620;22;20017;-91
2023/06/19 06:33:07;;;;;;;0.00;0.00;;;;;;;;;;6317170;22;20074;-92
2023/06/19 06:35:35;;;;;;;0.00;0.00;;;;;;;;;;6320418;22;20042;-91
2023/06/19 06:38:01;;;;;;;0.00;0.00;;;;;;;;;;6319568;22;20007;-91
2023/06/19 06:40:27;;;;;;;0.00;0.00;;;;;;;;;;6319083;22;20014;-89
2023/06/19 06:42:53;;;;;;;0.00;0.00;;;;;;;;;;6319288;22;20086;-88
2023/06/19 06:45:19;;;;;;;0.00;0.00;;;;;;;;;;6321736;22;20004;-89
2023/06/19 06:47:45;;;;;;;0.00;0.00;;;;;;;;;;6320955;22;20013;-89
2023/06/19 06:50:14;;;;;;;0.00;0.00;;;;;;;;;;6322573;22;20054;-89
2023/06/19 06:52:40;;;;;;;0.00;0.00;;;;;;;;;;6319871;22;20443;-91
2023/06/19 06:55:06;;;;;;;0.00;0.00;;;;;;;;;;6321139;22;20014;-92
2023/06/19 06:57:32;;;;;;;0.00;0.00;;;;;;;;;;6320584;22;20050;-91
2023/06/19 06:59:58;;;;;;;0.00;0.00;;;;;;;;;;6320580;22;20003;-85
2023/06/19 07:02:24;;;;;;;0.00;0.00;;;;;;;;;;6320146;22;20011;-89
2023/06/19 07:04:50;;;;;;;0.00;0.00;;;;;;;;;;6317192;22;19996;-89
2023/06/19 07:07:16;;;;;;;0.00;0.00;;;;;;;;;;6317129;22;20014;-88
2023/06/19 07:09:42;;;;;;;0.00;0.00;;;;;;;;;;6311115;22;19995;-90
2023/06/19 07:12:07;;;;;;;0.00;0.00;;;23.70;99.60;;;;;;6320887;22;20059;-88
2023/06/19 07:14:33;;;;;;;0.00;0.00;;;;;;;;;;6318265;22;20003;-89
2023/06/19 07:16:59;;;;;;;0.00;0.00;;;;;;;;;;6319777;22;20057;-83
2023/06/19 07:19:25;;;;;;;0.00;0.00;;;;;;;;;;6319839;22;20522;-89
2023/06/19 07:21:51;;;;;;;0.00;0.00;;;;;;;;;;6318666;22;20008;-87
2023/06/19 07:24:17;;;;;;;0.00;0.00;;;;;;;;;;6319230;22;20010;-86
2023/06/19 07:26:43;;;;;;;0.00;0.00;;;;;;;;;;6321731;22;20062;-88
2023/06/19 07:29:11;;;;;;;0.00;0.00;;;;;;;;;;6321106;22;20030;-87
2023/06/19 07:31:43;;;;;;;0.00;0.00;;;24.10;99.00;;;;;;6321612;22;20021;-89
2023/06/19 07:34:09;;;;;;;0.00;0.00;;;;;;;;;;6320926;22;20209;-89
2023/06/19 07:36:35;;;;;;;0.00;0.00;;;;;;;;;;6321607;22;20037;-91
2023/06/19 07:39:01;;;;;;;0.00;0.00;;;;;;;;;;6321135;22;20157;-89
2023/06/19 07:41:27;;;;;;;0.00;0.00;;;;;;;;;;6319193;22;20096;-87
2023/06/19 07:43:55;;;;;;;0.00;0.00;;;24.40;98.90;;;;;;6320720;22;20402;-89
2023/06/19 07:46:23;;;;;;;0.00;0.00;;;;;;;;;;6320675;22;20003;-87
2023/06/19 07:48:49;;;;;;;0.00;0.00;;;;;;;;;;6319551;22;20015;-92
2023/06/19 07:51:15;;;;;;;0.00;0.00;;;;;;;;;;6320352;22;19999;-84
2023/06/19 07:53:43;;;;;;;0.00;0.00;;;;;;;;;;6318867;22;20003;-88
2023/06/19 07:56:09;;;;;;;0.00;0.00;;;;;;;;;;6317347;22;20003;-83
2023/06/19 07:58:35;;;;;;;0.00;0.00;;;;;;;;;;6319450;22;20067;-86
2023/06/19 08:01:01;;;;;;;0.00;0.00;;;;;;;;;;6313767;22;20057;-84
2023/06/19 08:03:27;;;;;;;0.00;0.00;;;;;;;;;;6312977;22;20094;-89
2023/06/19 08:05:53;;;;;;;0.00;0.00;;;;;;;;;;6317361;22;20003;-84
2023/06/19 08:08:19;;;;;;;0.00;0.00;;;;;;;;;;6316351;22;20003;-85
2023/06/19 08:10:44;;;;;;;0.00;0.00;;;25.50;96.10;;;;;;6321746;22;20343;-89
2023/06/19 08:13:11;;;;;;;0.00;0.00;;;;;;;;;;6321012;22;20500;-88
2023/06/19 08:15:37;;;;;;;0.00;0.00;;;;;;;;;;6311682;22;20029;-84
2023/06/19 08:18:03;;;;;;;0.00;0.00;;;;;;;;;;6319105;22;20007;-84
2023/06/19 08:20:29;;;;;;;0.00;0.00;;;;;;;;;;6320931;22;20004;-88
2023/06/19 08:22:55;;;;;;;0.00;0.00;;;;;;;;;;6321732;22;20008;-90
2023/06/19 08:25:21;;;;;;;0.00;0.00;;;;;;;;;;6321902;22;19996;-89
2023/06/19 08:27:51;;;;;;;0.00;0.00;;;;;;;;;;6323084;22;20332;-89
2023/06/19 08:30:20;;;;;;;0.00;0.00;;;26.80;95.50;;;;;;6321857;22;20063;-92
2023/06/19 08:32:48;;;;;;;0.00;0.00;;;26.80;94.40;;;;;;6317551;22;20003;-89
2023/06/19 08:35:14;;;;;;;0.00;0.00;;;;;;;;;;6321586;22;20037;-89
2023/06/19 08:37:39;;;;;;;0.00;0.00;;;;;;;;;;6322113;22;20015;-89
2023/06/19 08:40:09;;;;;;;0.00;0.00;;;;;;;;;;6322827;22;20106;-90
2023/06/19 08:42:35;;;;;;;0.00;0.00;;;;;;;;;;6322176;22;20007;-91
2023/06/19 08:45:01;;;;;;;0.00;0.00;;;;;;;;;;6323148;22;20047;-92
2023/06/19 08:47:36;;;;;;;0.00;0.00;;;25.90;94.10;;;;;;6321665;22;19999;-92
2023/06/19 08:50:02;;;;;;;0.00;0.00;;;;;;;;;;6325103;22;20059;-93
2023/06/19 08:52:28;;;;;;;0.00;0.00;;;;;;;;;;6322832;22;20013;-86
2023/06/19 08:54:54;;;;;;;0.00;0.00;;;;;;;;;;6324038;22;20007;-89
2023/06/19 08:57:20;;;;;;;0.00;0.00;;;;;;;;;;6322510;22;20008;-89
2023/06/19 08:59:52;;;;;;;0.00;0.00;;;25.30;95.10;;;;;;6320387;22;20008;-91
2023/06/19 09:02:18;;;;;;;0.00;0.00;;;;;;;;;;6322031;22;20036;-91
2023/06/19 09:04:44;;;;;;;0.00;0.00;;;;;;;;;;6321380;22;20007;-91
2023/06/19 09:07:14;;;;;;;0.00;0.00;;;25.70;94.60;;;;;;6321143;22;20003;-85
2023/06/19 09:09:43;;;;;;;;;;;26.30;95.00;;;;;;6320516;22;20004;-92
2023/06/19 09:12:12;;;;;;;0.00;0.00;;;28.70;95.80;;;;;;6319649;22;19899;-90
2023/06/19 09:14:42;;;;;;;0.00;0.00;;;25.70;96.30;;;;;;6320753;22;20022;-86
2023/06/19 09:17:12;;;;;;;0.00;0.00;;;26.00;94.40;;;;;;6317516;22;20073;-93
2023/06/19 09:19:39;;;;;;;0.00;0.00;;;;;;;;;;6320947;22;20003;-90
2023/06/19 09:22:07;;;;;;;0.00;0.00;;;26.00;94.20;;;;;;6319817;22;20003;-92
2023/06/19 09:24:38;;;;;;;0.00;0.00;;;26.30;94.40;;;;;;6321376;22;20054;-88
2023/06/19 09:27:14;;;;;;;0.00;0.00;;;27.50;95.00;;;;;;6322752;22;20003;-89
2023/06/19 09:29:44;;;;;;;0.00;0.00;;;26.20;94.10;;;;;;6322335;22;20065;-88
2023/06/19 09:32:21;;;;;;;0.00;0.00;;;25.30;94.00;;;;;;6319352;22;20320;-82
2023/06/19 09:34:48;;;;;;;0.00;0.00;;;;;;;;;;6320239;22;20031;-85
2023/06/19 09:37:14;;;;;;;0.00;0.00;;;;;;;;;;6321665;22;20018;-90
2023/06/19 09:39:41;;;;;;;0.00;0.00;;;25.80;94.60;;;;;;6319823;22;20037;-87
2023/06/19 09:42:08;;;;;;;0.00;0.00;;;26.00;94.20;;;;;;6319269;22;20018;-90
2023/06/19 09:44:42;;;;;;;0.00;0.00;;;25.50;94.10;;;;;;6320254;22;20201;-92
2023/06/19 09:47:20;;;;;;;0.00;0.00;;;25.50;94.50;;;;;;6320405;22;20015;-91
2023/06/19 09:49:54;;;;;;;0.00;0.00;;;25.80;94.30;;;;;;6319640;22;19999;-92
2023/06/19 09:52:22;;;;;;;0.00;0.00;;;;;;;;;;6318202;22;19996;-92
2023/06/19 09:54:49;;;;;;;0.00;0.00;;;;;;;;;;6319818;22;19991;-90
2023/06/19 09:57:15;;;;;;;0.00;0.00;;;;;;;;;;6319383;22;20085;-85
2023/06/19 09:59:42;;;;;;;0.00;0.00;;;26.50;92.80;;;;;;6320678;22;20010;-90
2023/06/19 10:02:09;;;;;;;0.00;0.00;;;26.50;92.20;;;;;;6320727;22;20004;-91
2023/06/19 10:04:50;;;;;;;0.00;0.00;;;26.60;92.60;;;;;;6321348;22;20055;-91
2023/06/19 10:07:21;;;;;;;0.00;0.00;;;26.40;92.60;;;;;;6319732;22;20049;-87
2023/06/19 10:10:12;;;;;;;0.00;0.00;;;26.80;91.80;;;;;;6323917;22;19999;-92
2023/06/19 10:12:43;;;;;;;0.00;0.00;;;26.80;92.60;;;;;;6323378;22;20003;-89
2023/06/19 10:15:20;;;;;;;0.00;0.00;;;27.10;92.70;;;;;;6322684;22;20003;-89
2023/06/19 10:17:51;;;;;;;0.00;0.00;;;27.00;92.00;;;;;;6322752;22;20007;-93
2023/06/19 10:20:32;;;;;;;0.00;0.00;;;26.90;92.20;;;;;;6322428;22;20011;-84
2023/06/19 10:23:07;;;;;;;0.00;0.00;;;27.00;92.00;;;;;;6324347;22;20003;-93
2023/06/19 10:25:37;;;;;;;0.00;0.00;;;26.80;91.80;;;;;;6321728;22;20013;-91
2023/06/19 10:28:07;;;;;;;0.00;0.00;;;29.30;92.90;;;;;;6322626;22;20063;-89
2023/06/19 10:30:34;;;;;;;;;;;26.60;91.80;;;;;;6320784;22;20089;-86
2023/06/19 10:33:04;;;;;;;0.00;0.00;;;;;;;;;;6321449;22;19902;-92
2023/06/19 10:35:38;;;;;;;0.00;0.00;;;26.40;92.80;;;;;;6323759;22;20023;-87
2023/06/19 10:38:08;;;;;;;0.00;0.00;;;26.70;92.60;;;;;;6294998;22;20016;-88
2023/06/19 10:40:36;;;;;;;0.00;0.00;;;26.40;91.90;;;;;;6264140;22;20486;-88
2023/06/19 10:43:02;;;;;;;0.00;0.00;;;;;;;;;;6249565;22;20350;-88
2023/06/19 10:45:28;;;;;;;0.00;0.00;;;26.40;92.20;;;;;;6248793;22;20035;-87
2023/06/19 10:47:54;;;;;;;0.00;0.00;;;26.20;92.60;;;;;;6247219;22;20050;-88
2023/06/19 10:50:20;;;;;;;0.00;0.00;;;26.00;92.80;;;;;;6223251;22;20007;-87
2023/06/19 10:52:47;;;;;;;0.00;0.00;;;25.70;93.90;;;;;;6275805;22;20453;-88
2023/06/19 10:55:13;;;;;;;0.00;0.00;;;25.90;93.40;;;;;;6249122;22;20315;-89
2023/06/19 10:57:44;;;;;;;0.00;0.00;;;26.20;93.00;;;;;;6248879;22;20007;-88
2023/06/19 11:00:11;;;;;;;0.00;0.00;;;26.10;93.10;;;;;;6249866;22;20014;-89
2023/06/19 11:02:39;;;;;;;0.00;0.00;;;26.20;92.60;;;;;;6249510;22;20014;-86
2023/06/19 11:05:05;;;;;;;0.00;0.00;;;25.70;92.80;;;;;;6276478;22;20078;-88
2023/06/19 11:07:32;;;;;;;0.00;0.00;;;25.80;92.90;;;;;;6248277;22;20312;-88
2023/06/19 11:09:58;;;;;;;0.00;0.00;;;;;;;;;;6224306;22;20606;-88
2023/06/19 11:12:24;;;;;;;0.00;0.00;;;;;;;;;;6249448;22;20004;-88
2023/06/19 11:14:51;;;;;;;0.00;0.00;;;;;;;;;;6250105;22;20423;-87
2023/06/19 11:17:20;;;;;;;0.00;0.00;;;26.50;93.00;;;;;;6250165;22;20077;-87
2023/06/19 11:19:46;;;;;;;0.00;0.00;;;;;;;;;;6249812;22;20008;-88
2023/06/19 11:22:12;;;;;;;0.00;0.00;;;;;;;;;;6249064;22;20454;-86
2023/06/19 11:24:46;;;;;;;0.00;0.00;;;27.00;93.40;;;;;;6248476;22;19996;-87
2023/06/19 11:27:18;;;;;;;0.00;0.00;;;27.80;93.80;;;;;;6249209;22;20500;-89
2023/06/19 11:29:44;;;;;;;0.00;0.00;;;;;;;;;;6248067;22;19999;-87
2023/06/19 11:32:13;;;;;;;0.00;0.00;;;27.20;92.20;;;;;;6249764;22;20011;-87
2023/06/19 11:34:39;;;;;;;;;;;27.20;92.50;;;;;;6249845;22;20010;-88
2023/06/19 11:37:14;;;;;;;0.00;0.00;;;27.30;91.80;;;;;;6248410;22;19903;-88
2023/06/19 11:39:43;;;;;;;0.00;0.00;;;27.70;92.20;;;;;;6249557;22;20003;-88
2023/06/19 11:42:09;;;;;;;0.00;0.00;;;;;;;;;;6249056;22;20031;-87
2023/06/19 11:44:34;;;;;;;0.00;0.00;;;27.60;92.30;;;;;;6248637;22;20019;-87
2023/06/19 11:47:00;;;;;;;0.00;0.00;;;;;;;;;;6246728;22;20000;-88
2023/06/19 11:49:28;;;;;;;0.00;0.00;;;27.10;92.00;;;;;;6249504;22;20003;-89
2023/06/19 11:51:53;;;;;;;0.00;0.00;;;27.00;92.20;;;;;;6249416;22;20008;-86
2023/06/19 11:54:20;;;;;;;0.00;0.00;;;27.10;92.90;;;;;;6249574;22;20166;-88
2023/06/19 11:56:49;;;;;;;0.00;0.00;;;;;;;;;;6275257;22;20021;-88
2023/06/19 11:59:15;;;;;;;0.00;0.00;;;;;;;;;;6248014;22;20008;-88
2023/06/19 12:01:41;;;;;;;0.00;0.00;;;27.10;92.50;;;;;;6248752;22;20004;-88
2023/06/19 12:04:06;;;;;;;0.00;0.00;;;28.50;93.10;;;;;;6248694;22;20129;-89
2023/06/19 12:06:35;;;;;;;0.00;0.00;;;;;;;;;;6248953;22;20008;-87
2023/06/19 12:09:06;;;;;;;0.00;0.00;;;27.30;90.90;;;;;;6248576;22;20427;-88
2023/06/19 12:11:31;;;;;;;0.00;0.00;;;27.20;92.80;;;;;;6223510;22;20003;-87
2023/06/19 12:13:57;;;;;;;0.00;0.00;;;;;;;;;;6247295;22;20082;-86
2023/06/19 12:16:23;;;;;;;0.00;0.00;;;27.00;92.30;;;;;;6239678;22;20008;-87
2023/06/19 12:18:48;;;;;;;0.00;0.00;;;27.20;91.90;;;;;;6246130;22;20026;-87
2023/06/19 12:21:14;;;;;;;0.00;0.00;;;;;;;;;;6247751;22;20000;-89
2023/06/19 12:23:40;;;;;;;0.00;0.00;;;;;;;;;;6250044;22;20011;-88
2023/06/19 12:26:06;;;;;;;0.00;0.00;;;27.30;91.90;;;;;;6247873;22;20486;-89
2023/06/19 12:28:32;;;;;;;0.00;0.00;;;;;;;;;;6249413;22;20011;-88
2023/06/19 12:30:58;;;;;;;0.00;0.00;;;;;;;;;;6250147;22;20034;-87
2023/06/19 12:33:24;;;;;;;0.00;0.00;;;;;;;;;;6251226;22;20007;-89
2023/06/19 12:35:51;;;;;;;0.00;0.00;;;;;;;;;;6251199;22;20043;-86
2023/06/19 12:38:17;;;;;;;0.00;0.00;;;28.10;91.50;;;;;;6264679;22;20016;-88
2023/06/19 12:40:43;;;;;;;0.00;0.00;;;28.00;91.50;;;;;;6276542;22;20442;-89
2023/06/19 12:43:08;;;;;;;0.00;0.00;;;28.90;91.90;;;;;;6275603;22;20055;-88
2023/06/19 12:45:34;;;;;;;0.00;0.00;;;;;;;;;;6274977;22;20423;-89
2023/06/19 12:48:00;;;;;;;0.00;0.00;;;28.00;91.40;;;;;;6273962;22;20015;-89
2023/06/19 12:50:25;;;;;;;0.00;0.00;;;28.20;90.50;;;;;;6274087;22;19996;-86
2023/06/19 12:52:51;;;;;;;0.00;0.00;;;28.00;90.30;;;;;;6274331;22;20010;-85
2023/06/19 12:55:17;;;;;;;0.00;0.00;;;27.90;91.30;;;;;;6275657;22;20003;-87
2023/06/19 12:57:44;;;;;;;0.00;0.00;;;;;;;;;;6279327;22;20312;-88
2023/06/19 13:00:11;;;;;;;0.00;0.00;;;28.10;90.80;;;;;;6277786;22;20007;-88
2023/06/19 13:02:39;;;;;;;0.00;0.00;;;28.00;91.20;;;;;;6283939;22;20029;-86
2023/06/19 13:05:05;;;;;;;0.00;0.00;;;27.90;91.10;;;;;;6286538;22;20000;-86
2023/06/19 13:07:31;;;;;;;0.00;0.00;;;;;;;;;;6276327;22;20460;-87
2023/06/19 13:09:57;;;;;;;0.00;0.00;;;27.90;90.80;;;;;;6275482;22;20032;-85
2023/06/19 13:12:23;;;;;;;0.00;0.00;;;;;;;;;;6275846;22;20076;-89
2023/06/19 13:14:49;;;;;;;0.00;0.00;;;28.20;89.80;;;;;;6282657;22;20370;-86
2023/06/19 13:17:15;;;;;;;0.00;0.00;;;;;;;;;;6275295;22;20061;-87
2023/06/19 13:19:40;;;;;;;0.00;0.00;;;28.90;89.50;;;;;;6275838;22;20011;-87
2023/06/19 13:22:06;;;;;;;0.00;0.00;;;28.90;90.10;;;;;;6275790;22;20042;-89
2023/06/19 13:24:32;;;;;;;0.00;0.00;;;;;;;;;;6274113;22;20008;-88
2023/06/19 13:26:58;;;;;;;0.00;0.00;;;29.20;90.10;;;;;;6274610;22;20075;-88
2023/06/19 13:29:23;;;;;;;0.00;0.00;;;29.50;87.60;;;;;;6273304;22;20050;-88
2023/06/19 13:31:49;;;;;;;0.00;0.00;;;;;;;;;;6273774;22;20026;-88
2023/06/19 13:34:15;;;;;;;0.00;0.00;;;29.60;89.00;;;;;;6275337;22;20008;-87
2023/06/19 13:36:41;;;;;;;0.00;0.00;;;29.30;88.00;;;;;;6275631;22;20031;-89
2023/06/19 13:39:07;;;;;;;0.00;0.00;;;29.20;86.20;;;;;;6274750;22;20477;-86
2023/06/19 13:41:32;;;;;;;0.00;0.00;;;29.20;88.60;;;;;;6274284;22;20019;-87
2023/06/19 13:43:59;;;;;;;0.00;0.00;;;29.40;88.60;;;;;;6277161;22;20002;-90
2023/06/19 13:46:25;;;;;;;0.00;0.00;;;;;;;;;;6276441;22;19999;-88
2023/06/19 13:48:51;;;;;;;0.00;0.00;;;;;;;;;;6276276;22;20050;-88
2023/06/19 13:51:18;;;;;;;0.00;0.00;;;28.90;89.20;;;;;;6275002;22;20004;-85
2023/06/19 13:53:44;;;;;;;0.00;0.00;;;;;;;;;;6276452;22;19999;-87
2023/06/19 13:56:10;;;;;;;0.00;0.00;;;;;;;;;;6275928;22;20361;-88
2023/06/19 13:58:35;;;;;;;0.00;0.00;;;28.90;83.50;;;;;;6275374;22;20003;-86
2023/06/19 14:01:04;;;;;;;0.00;0.00;;;;;;;;;;6272470;22;20024;-87
2023/06/19 14:03:31;;;;;;;0.00;0.00;;;;;;;;;;6273734;22;20007;-86
2023/06/19 14:05:56;;;;;;;0.00;0.00;;;;;;;;;;6275489;22;20007;-88
2023/06/19 14:08:23;;;;;;;0.00;0.00;;;;;;;;;;6275579;22;20338;-86